sensor_id;sensor_type;location;lat;lon;timestamp;P1;durP1;ratioP1;P2;durP2;ratioP2
52838;SDS011;39219;53.678;9.856;2023-04-30T00:01:55;15.43;;;5.00;;
52838;SDS011;39219;53.678;9.856;2023-04-30T00:04:21;13.15;;;4.90;;
52838;SDS011;39219;53.678;9.856;2023-04-30T00:06:48;11.85;;;5.07;;
52838;SDS011;39219;53.678;9.856;2023-04-30T00:09:14;13.43;;;5.03;;
52838;SDS011;39219;53.678;9.856;2023-04-30T00:11:41;11.63;;;4.93;;
52838;SDS011;39219;53.678;9.856;2023-04-30T00:14:08;13.52;;;4.95;;
52838;SDS011;39219;53.678;9.856;2023-04-30T00:16:36;12.10;;;4.85;;
52838;SDS011;39219;53.678;9.856;2023-04-30T00:19:02;15.52;;;5.45;;
52838;SDS011;39219;53.678;9.856;2023-04-30T00:21:29;13.65;;;5.28;;
52838;SDS011;39219;53.678;9.856;2023-04-30T00:23:56;16.52;;;5.95;;
52838;SDS011;39219;53.678;9.856;2023-04-30T00:26:24;15.63;;;5.22;;
52838;SDS011;39219;53.678;9.856;2023-04-30T00:28:50;16.58;;;5.50;;
52838;SDS011;39219;53.678;9.856;2023-04-30T00:31:17;13.30;;;5.45;;
52838;SDS011;39219;53.678;9.856;2023-04-30T00:33:45;12.13;;;5.03;;
52838;SDS011;39219;53.678;9.856;2023-04-30T00:36:11;15.80;;;5.57;;
52838;SDS011;39219;53.678;9.856;2023-04-30T00:38:37;12.57;;;5.50;;
52838;SDS011;39219;53.678;9.856;2023-04-30T00:41:04;14.43;;;5.53;;
52838;SDS011;39219;53.678;9.856;2023-04-30T00:43:31;11.10;;;4.40;;
52838;SDS011;39219;53.678;9.856;2023-04-30T00:45:58;13.55;;;5.28;;
52838;SDS011;39219;53.678;9.856;2023-04-30T00:48:24;13.23;;;5.30;;
52838;SDS011;39219;53.678;9.856;2023-04-30T00:50:53;13.50;;;4.78;;
52838;SDS011;39219;53.678;9.856;2023-04-30T00:53:19;13.45;;;5.47;;
52838;SDS011;39219;53.678;9.856;2023-04-30T00:55:46;14.38;;;4.82;;
52838;SDS011;39219;53.678;9.856;2023-04-30T00:58:13;15.60;;;5.00;;
52838;SDS011;39219;53.678;9.856;2023-04-30T01:00:40;15.23;;;5.43;;
52838;SDS011;39219;53.678;9.856;2023-04-30T01:03:11;13.15;;;4.90;;
52838;SDS011;39219;53.678;9.856;2023-04-30T01:05:38;14.27;;;4.97;;
52838;SDS011;39219;53.678;9.856;2023-04-30T01:08:06;14.00;;;5.03;;
52838;SDS011;39219;53.678;9.856;2023-04-30T01:10:35;13.98;;;5.20;;
52838;SDS011;39219;53.678;9.856;2023-04-30T01:13:11;10.40;;;4.50;;
52838;SDS011;39219;53.678;9.856;2023-04-30T01:15:45;14.77;;;5.05;;
52838;SDS011;39219;53.678;9.856;2023-04-30T01:18:21;16.35;;;5.68;;
52838;SDS011;39219;53.678;9.856;2023-04-30T01:20:53;18.63;;;5.65;;
52838;SDS011;39219;53.678;9.856;2023-04-30T01:23:31;13.52;;;5.20;;
52838;SDS011;39219;53.678;9.856;2023-04-30T01:26:13;13.55;;;5.38;;
52838;SDS011;39219;53.678;9.856;2023-04-30T01:28:46;11.73;;;4.75;;
52838;SDS011;39219;53.678;9.856;2023-04-30T01:31:17;14.50;;;5.05;;
52838;SDS011;39219;53.678;9.856;2023-04-30T01:33:45;13.18;;;5.47;;
52838;SDS011;39219;53.678;9.856;2023-04-30T01:36:20;12.45;;;5.13;;
52838;SDS011;39219;53.678;9.856;2023-04-30T01:39:02;12.50;;;4.90;;
52838;SDS011;39219;53.678;9.856;2023-04-30T01:41:39;14.55;;;5.45;;
52838;SDS011;39219;53.678;9.856;2023-04-30T01:44:23;13.07;;;5.03;;
52838;SDS011;39219;53.678;9.856;2023-04-30T01:46:57;12.38;;;5.10;;
52838;SDS011;39219;53.678;9.856;2023-04-30T01:49:31;12.15;;;4.93;;
52838;SDS011;39219;53.678;9.856;2023-04-30T01:52:14;12.00;;;5.00;;
52838;SDS011;39219;53.678;9.856;2023-04-30T01:54:46;15.18;;;5.28;;
52838;SDS011;39219;53.678;9.856;2023-04-30T01:57:17;14.40;;;5.20;;
52838;SDS011;39219;53.678;9.856;2023-04-30T01:59:58;14.95;;;5.47;;
52838;SDS011;39219;53.678;9.856;2023-04-30T02:02:25;12.25;;;4.88;;
52838;SDS011;39219;53.678;9.856;2023-04-30T02:04:51;10.77;;;4.78;;
52838;SDS011;39219;53.678;9.856;2023-04-30T02:07:20;12.07;;;4.90;;
52838;SDS011;39219;53.678;9.856;2023-04-30T02:09:57;9.07;;;4.50;;
52838;SDS011;39219;53.678;9.856;2023-04-30T02:12:23;12.88;;;5.28;;
52838;SDS011;39219;53.678;9.856;2023-04-30T02:14:50;15.32;;;5.35;;
52838;SDS011;39219;53.678;9.856;2023-04-30T02:17:17;11.63;;;4.85;;
52838;SDS011;39219;53.678;9.856;2023-04-30T02:19:44;13.57;;;5.28;;
52838;SDS011;39219;53.678;9.856;2023-04-30T02:22:10;13.95;;;5.30;;
52838;SDS011;39219;53.678;9.856;2023-04-30T02:24:37;15.43;;;5.30;;
52838;SDS011;39219;53.678;9.856;2023-04-30T02:27:03;13.30;;;5.03;;
52838;SDS011;39219;53.678;9.856;2023-04-30T02:29:30;14.95;;;5.47;;
52838;SDS011;39219;53.678;9.856;2023-04-30T02:31:57;14.55;;;5.47;;
52838;SDS011;39219;53.678;9.856;2023-04-30T02:34:25;12.90;;;5.15;;
52838;SDS011;39219;53.678;9.856;2023-04-30T02:36:51;12.77;;;5.22;;
52838;SDS011;39219;53.678;9.856;2023-04-30T02:39:18;14.02;;;4.72;;
52838;SDS011;39219;53.678;9.856;2023-04-30T02:41:44;13.75;;;5.15;;
52838;SDS011;39219;53.678;9.856;2023-04-30T02:44:11;14.18;;;5.43;;
52838;SDS011;39219;53.678;9.856;2023-04-30T02:46:37;14.40;;;5.40;;
52838;SDS011;39219;53.678;9.856;2023-04-30T02:49:04;10.75;;;5.20;;
52838;SDS011;39219;53.678;9.856;2023-04-30T02:51:31;10.73;;;5.32;;
52838;SDS011;39219;53.678;9.856;2023-04-30T02:53:58;11.15;;;5.30;;
52838;SDS011;39219;53.678;9.856;2023-04-30T02:56:24;12.02;;;4.95;;
52838;SDS011;39219;53.678;9.856;2023-04-30T02:58:51;12.73;;;5.47;;
52838;SDS011;39219;53.678;9.856;2023-04-30T03:01:18;10.27;;;4.85;;
52838;SDS011;39219;53.678;9.856;2023-04-30T03:03:44;10.27;;;5.32;;
52838;SDS011;39219;53.678;9.856;2023-04-30T03:06:11;13.95;;;4.95;;
52838;SDS011;39219;53.678;9.856;2023-04-30T03:08:38;13.02;;;5.30;;
52838;SDS011;39219;53.678;9.856;2023-04-30T03:11:05;12.18;;;5.20;;
52838;SDS011;39219;53.678;9.856;2023-04-30T03:13:31;11.50;;;5.05;;
52838;SDS011;39219;53.678;9.856;2023-04-30T03:15:58;14.10;;;4.95;;
52838;SDS011;39219;53.678;9.856;2023-04-30T03:18:25;13.18;;;4.82;;
52838;SDS011;39219;53.678;9.856;2023-04-30T03:20:52;13.80;;;4.93;;
52838;SDS011;39219;53.678;9.856;2023-04-30T03:23:18;12.23;;;5.00;;
52838;SDS011;39219;53.678;9.856;2023-04-30T03:25:46;11.77;;;5.00;;
52838;SDS011;39219;53.678;9.856;2023-04-30T03:28:13;12.27;;;5.18;;
52838;SDS011;39219;53.678;9.856;2023-04-30T03:30:40;15.13;;;5.25;;
52838;SDS011;39219;53.678;9.856;2023-04-30T03:33:06;13.90;;;5.35;;
52838;SDS011;39219;53.678;9.856;2023-04-30T03:35:33;13.82;;;5.80;;
52838;SDS011;39219;53.678;9.856;2023-04-30T03:38:00;13.40;;;5.50;;
52838;SDS011;39219;53.678;9.856;2023-04-30T03:40:26;12.65;;;5.45;;
52838;SDS011;39219;53.678;9.856;2023-04-30T03:42:54;11.93;;;5.22;;
52838;SDS011;39219;53.678;9.856;2023-04-30T03:45:21;12.93;;;5.55;;
52838;SDS011;39219;53.678;9.856;2023-04-30T03:47:48;13.82;;;5.43;;
52838;SDS011;39219;53.678;9.856;2023-04-30T03:50:16;14.77;;;5.25;;
52838;SDS011;39219;53.678;9.856;2023-04-30T03:52:44;12.00;;;5.22;;
52838;SDS011;39219;53.678;9.856;2023-04-30T03:55:10;12.32;;;5.25;;
52838;SDS011;39219;53.678;9.856;2023-04-30T03:57:37;14.95;;;5.78;;
52838;SDS011;39219;53.678;9.856;2023-04-30T04:00:07;12.63;;;5.03;;
52838;SDS011;39219;53.678;9.856;2023-04-30T04:02:34;13.35;;;4.93;;
52838;SDS011;39219;53.678;9.856;2023-04-30T04:05:01;10.45;;;5.22;;
52838;SDS011;39219;53.678;9.856;2023-04-30T04:07:27;12.23;;;5.20;;
52838;SDS011;39219;53.678;9.856;2023-04-30T04:09:54;12.95;;;5.57;;
52838;SDS011;39219;53.678;9.856;2023-04-30T04:12:21;14.32;;;6.10;;
52838;SDS011;39219;53.678;9.856;2023-04-30T04:14:47;15.63;;;5.55;;
52838;SDS011;39219;53.678;9.856;2023-04-30T04:17:15;12.52;;;5.53;;
52838;SDS011;39219;53.678;9.856;2023-04-30T04:19:42;11.23;;;5.70;;
52838;SDS011;39219;53.678;9.856;2023-04-30T04:22:08;16.33;;;5.85;;
52838;SDS011;39219;53.678;9.856;2023-04-30T04:24:35;14.77;;;5.85;;
52838;SDS011;39219;53.678;9.856;2023-04-30T04:27:02;13.10;;;5.90;;
52838;SDS011;39219;53.678;9.856;2023-04-30T04:29:29;15.77;;;6.15;;
52838;SDS011;39219;53.678;9.856;2023-04-30T04:31:56;13.20;;;5.88;;
52838;SDS011;39219;53.678;9.856;2023-04-30T04:34:25;12.60;;;5.70;;
52838;SDS011;39219;53.678;9.856;2023-04-30T04:36:52;16.88;;;6.00;;
52838;SDS011;39219;53.678;9.856;2023-04-30T04:39:18;11.85;;;5.40;;
52838;SDS011;39219;53.678;9.856;2023-04-30T04:41:45;18.13;;;5.75;;
52838;SDS011;39219;53.678;9.856;2023-04-30T04:44:11;12.65;;;5.53;;
52838;SDS011;39219;53.678;9.856;2023-04-30T04:46:37;11.70;;;5.32;;
52838;SDS011;39219;53.678;9.856;2023-04-30T04:49:06;10.40;;;5.25;;
52838;SDS011;39219;53.678;9.856;2023-04-30T04:51:34;14.27;;;5.72;;
52838;SDS011;39219;53.678;9.856;2023-04-30T04:54:01;10.40;;;5.43;;
52838;SDS011;39219;53.678;9.856;2023-04-30T04:56:27;14.90;;;5.55;;
52838;SDS011;39219;53.678;9.856;2023-04-30T04:58:53;14.43;;;5.82;;
52838;SDS011;39219;53.678;9.856;2023-04-30T05:01:20;12.38;;;5.90;;
52838;SDS011;39219;53.678;9.856;2023-04-30T05:03:47;12.93;;;5.57;;
52838;SDS011;39219;53.678;9.856;2023-04-30T05:06:13;13.70;;;5.50;;
52838;SDS011;39219;53.678;9.856;2023-04-30T05:08:41;16.63;;;6.30;;
52838;SDS011;39219;53.678;9.856;2023-04-30T05:11:07;14.60;;;5.93;;
52838;SDS011;39219;53.678;9.856;2023-04-30T05:13:34;13.65;;;6.30;;
52838;SDS011;39219;53.678;9.856;2023-04-30T05:16:01;17.08;;;6.22;;
52838;SDS011;39219;53.678;9.856;2023-04-30T05:18:27;14.57;;;5.75;;
52838;SDS011;39219;53.678;9.856;2023-04-30T05:20:54;13.80;;;5.47;;
52838;SDS011;39219;53.678;9.856;2023-04-30T05:23:20;14.25;;;5.82;;
52838;SDS011;39219;53.678;9.856;2023-04-30T05:25:51;15.35;;;5.35;;
52838;SDS011;39219;53.678;9.856;2023-04-30T05:28:18;15.65;;;5.50;;
52838;SDS011;39219;53.678;9.856;2023-04-30T05:30:45;14.68;;;5.97;;
52838;SDS011;39219;53.678;9.856;2023-04-30T05:33:11;12.38;;;5.03;;
52838;SDS011;39219;53.678;9.856;2023-04-30T05:35:38;12.50;;;5.13;;
52838;SDS011;39219;53.678;9.856;2023-04-30T05:38:04;10.85;;;4.20;;
52838;SDS011;39219;53.678;9.856;2023-04-30T05:40:31;9.88;;;4.00;;
52838;SDS011;39219;53.678;9.856;2023-04-30T05:42:59;7.30;;;3.70;;
52838;SDS011;39219;53.678;9.856;2023-04-30T05:45:25;8.82;;;3.55;;
52838;SDS011;39219;53.678;9.856;2023-04-30T05:47:52;7.43;;;3.63;;
52838;SDS011;39219;53.678;9.856;2023-04-30T05:50:18;7.85;;;3.42;;
52838;SDS011;39219;53.678;9.856;2023-04-30T05:52:45;10.68;;;3.65;;
52838;SDS011;39219;53.678;9.856;2023-04-30T05:55:11;7.63;;;3.10;;
52838;SDS011;39219;53.678;9.856;2023-04-30T05:57:38;7.47;;;3.63;;
52838;SDS011;39219;53.678;9.856;2023-04-30T06:00:06;10.15;;;3.95;;
52838;SDS011;39219;53.678;9.856;2023-04-30T06:02:34;9.25;;;3.30;;
52838;SDS011;39219;53.678;9.856;2023-04-30T06:05:00;6.93;;;2.92;;
52838;SDS011;39219;53.678;9.856;2023-04-30T06:07:27;10.32;;;3.17;;
52838;SDS011;39219;53.678;9.856;2023-04-30T06:09:53;6.75;;;2.88;;
52838;SDS011;39219;53.678;9.856;2023-04-30T06:12:21;5.95;;;2.70;;
52838;SDS011;39219;53.678;9.856;2023-04-30T06:14:47;6.53;;;2.92;;
52838;SDS011;39219;53.678;9.856;2023-04-30T06:17:15;5.95;;;3.15;;
52838;SDS011;39219;53.678;9.856;2023-04-30T06:19:41;5.65;;;3.10;;
52838;SDS011;39219;53.678;9.856;2023-04-30T06:22:08;5.95;;;2.53;;
52838;SDS011;39219;53.678;9.856;2023-04-30T06:24:34;6.30;;;2.80;;
52838;SDS011;39219;53.678;9.856;2023-04-30T06:27:01;7.65;;;2.53;;
52838;SDS011;39219;53.678;9.856;2023-04-30T06:29:28;6.75;;;2.80;;
52838;SDS011;39219;53.678;9.856;2023-04-30T06:31:54;7.30;;;2.67;;
52838;SDS011;39219;53.678;9.856;2023-04-30T06:34:22;8.25;;;2.90;;
52838;SDS011;39219;53.678;9.856;2023-04-30T06:36:49;7.22;;;3.20;;
52838;SDS011;39219;53.678;9.856;2023-04-30T06:39:15;7.20;;;2.80;;
52838;SDS011;39219;53.678;9.856;2023-04-30T06:41:42;5.78;;;2.55;;
52838;SDS011;39219;53.678;9.856;2023-04-30T06:44:08;7.00;;;2.60;;
52838;SDS011;39219;53.678;9.856;2023-04-30T06:46:35;5.45;;;2.88;;
52838;SDS011;39219;53.678;9.856;2023-04-30T06:49:02;8.13;;;2.63;;
52838;SDS011;39219;53.678;9.856;2023-04-30T06:51:29;6.20;;;2.95;;
52838;SDS011;39219;53.678;9.856;2023-04-30T06:53:56;6.53;;;2.75;;
52838;SDS011;39219;53.678;9.856;2023-04-30T06:56:22;8.43;;;2.70;;
52838;SDS011;39219;53.678;9.856;2023-04-30T06:58:49;5.80;;;2.63;;
52838;SDS011;39219;53.678;9.856;2023-04-30T07:01:16;5.40;;;2.55;;
52838;SDS011;39219;53.678;9.856;2023-04-30T07:03:42;7.40;;;2.50;;
52838;SDS011;39219;53.678;9.856;2023-04-30T07:06:09;8.40;;;2.92;;
52838;SDS011;39219;53.678;9.856;2023-04-30T07:08:37;5.63;;;2.55;;
52838;SDS011;39219;53.678;9.856;2023-04-30T07:11:05;7.95;;;2.63;;
52838;SDS011;39219;53.678;9.856;2023-04-30T07:13:31;11.02;;;2.78;;
52838;SDS011;39219;53.678;9.856;2023-04-30T07:15:58;8.50;;;2.70;;
52838;SDS011;39219;53.678;9.856;2023-04-30T07:18:24;7.68;;;2.80;;
52838;SDS011;39219;53.678;9.856;2023-04-30T07:20:51;5.43;;;2.50;;
52838;SDS011;39219;53.678;9.856;2023-04-30T07:23:17;7.05;;;2.63;;
52838;SDS011;39219;53.678;9.856;2023-04-30T07:25:46;6.32;;;2.60;;
52838;SDS011;39219;53.678;9.856;2023-04-30T07:28:12;6.55;;;2.67;;
52838;SDS011;39219;53.678;9.856;2023-04-30T07:30:39;6.25;;;2.45;;
52838;SDS011;39219;53.678;9.856;2023-04-30T07:33:05;9.98;;;2.67;;
52838;SDS011;39219;53.678;9.856;2023-04-30T07:35:33;7.15;;;2.40;;
52838;SDS011;39219;53.678;9.856;2023-04-30T07:38:00;5.53;;;2.17;;
52838;SDS011;39219;53.678;9.856;2023-04-30T07:40:27;7.28;;;2.83;;
52838;SDS011;39219;53.678;9.856;2023-04-30T07:42:55;9.55;;;2.45;;
52838;SDS011;39219;53.678;9.856;2023-04-30T07:45:22;5.72;;;2.38;;
52838;SDS011;39219;53.678;9.856;2023-04-30T07:47:48;6.90;;;2.50;;
52838;SDS011;39219;53.678;9.856;2023-04-30T07:50:14;8.10;;;2.42;;
52838;SDS011;39219;53.678;9.856;2023-04-30T07:52:41;6.07;;;2.33;;
52838;SDS011;39219;53.678;9.856;2023-04-30T07:55:08;5.78;;;2.78;;
52838;SDS011;39219;53.678;9.856;2023-04-30T07:57:34;6.15;;;2.40;;
52838;SDS011;39219;53.678;9.856;2023-04-30T08:00:03;6.72;;;2.53;;
52838;SDS011;39219;53.678;9.856;2023-04-30T08:02:30;8.52;;;2.83;;
52838;SDS011;39219;53.678;9.856;2023-04-30T08:04:57;6.85;;;2.63;;
52838;SDS011;39219;53.678;9.856;2023-04-30T08:07:23;6.20;;;2.25;;
52838;SDS011;39219;53.678;9.856;2023-04-30T08:09:50;6.88;;;2.33;;
52838;SDS011;39219;53.678;9.856;2023-04-30T08:12:16;5.90;;;2.40;;
52838;SDS011;39219;53.678;9.856;2023-04-30T08:14:43;6.28;;;2.60;;
52838;SDS011;39219;53.678;9.856;2023-04-30T08:17:10;7.32;;;2.72;;
52838;SDS011;39219;53.678;9.856;2023-04-30T08:19:37;6.30;;;2.60;;
52838;SDS011;39219;53.678;9.856;2023-04-30T08:22:03;5.32;;;2.40;;
52838;SDS011;39219;53.678;9.856;2023-04-30T08:24:30;6.75;;;2.33;;
52838;SDS011;39219;53.678;9.856;2023-04-30T08:26:56;7.43;;;2.80;;
52838;SDS011;39219;53.678;9.856;2023-04-30T08:29:24;8.88;;;2.72;;
52838;SDS011;39219;53.678;9.856;2023-04-30T08:31:51;5.90;;;2.45;;
52838;SDS011;39219;53.678;9.856;2023-04-30T08:34:19;5.35;;;2.95;;
52838;SDS011;39219;53.678;9.856;2023-04-30T08:36:45;7.05;;;2.60;;
52838;SDS011;39219;53.678;9.856;2023-04-30T08:39:12;8.70;;;2.55;;
52838;SDS011;39219;53.678;9.856;2023-04-30T08:41:38;6.45;;;2.50;;
52838;SDS011;39219;53.678;9.856;2023-04-30T08:44:08;7.63;;;2.80;;
52838;SDS011;39219;53.678;9.856;2023-04-30T08:46:36;9.45;;;2.92;;
52838;SDS011;39219;53.678;9.856;2023-04-30T08:49:04;7.75;;;3.08;;
52838;SDS011;39219;53.678;9.856;2023-04-30T08:51:32;8.15;;;2.50;;
52838;SDS011;39219;53.678;9.856;2023-04-30T08:54:00;7.63;;;2.90;;
52838;SDS011;39219;53.678;9.856;2023-04-30T08:56:26;6.03;;;2.88;;
52838;SDS011;39219;53.678;9.856;2023-04-30T08:58:55;6.80;;;2.53;;
52838;SDS011;39219;53.678;9.856;2023-04-30T09:01:21;4.82;;;2.45;;
52838;SDS011;39219;53.678;9.856;2023-04-30T09:03:49;9.40;;;3.00;;
52838;SDS011;39219;53.678;9.856;2023-04-30T09:06:15;5.03;;;2.65;;
52838;SDS011;39219;53.678;9.856;2023-04-30T09:08:44;6.22;;;2.90;;
52838;SDS011;39219;53.678;9.856;2023-04-30T09:11:22;6.70;;;2.80;;
52838;SDS011;39219;53.678;9.856;2023-04-30T09:13:50;8.00;;;3.10;;
52838;SDS011;39219;53.678;9.856;2023-04-30T09:16:18;6.40;;;2.80;;
52838;SDS011;39219;53.678;9.856;2023-04-30T09:18:45;5.95;;;2.72;;
52838;SDS011;39219;53.678;9.856;2023-04-30T09:21:11;6.43;;;2.97;;
52838;SDS011;39219;53.678;9.856;2023-04-30T09:23:52;5.68;;;2.50;;
52838;SDS011;39219;53.678;9.856;2023-04-30T09:26:21;7.38;;;2.85;;
52838;SDS011;39219;53.678;9.856;2023-04-30T09:28:55;6.13;;;2.65;;
52838;SDS011;39219;53.678;9.856;2023-04-30T09:31:23;7.40;;;3.17;;
52838;SDS011;39219;53.678;9.856;2023-04-30T09:33:51;6.05;;;3.10;;
52838;SDS011;39219;53.678;9.856;2023-04-30T09:36:18;7.15;;;2.85;;
52838;SDS011;39219;53.678;9.856;2023-04-30T09:38:45;8.45;;;3.05;;
52838;SDS011;39219;53.678;9.856;2023-04-30T09:41:21;8.48;;;3.10;;
52838;SDS011;39219;53.678;9.856;2023-04-30T09:43:49;7.07;;;2.63;;
52838;SDS011;39219;53.678;9.856;2023-04-30T09:46:17;6.78;;;2.80;;
52838;SDS011;39219;53.678;9.856;2023-04-30T09:48:44;8.30;;;3.20;;
52838;SDS011;39219;53.678;9.856;2023-04-30T09:51:10;6.18;;;2.95;;
52838;SDS011;39219;53.678;9.856;2023-04-30T09:53:37;9.05;;;3.17;;
52838;SDS011;39219;53.678;9.856;2023-04-30T09:56:07;8.10;;;3.33;;
52838;SDS011;39219;53.678;9.856;2023-04-30T09:58:38;7.57;;;3.10;;
52838;SDS011;39219;53.678;9.856;2023-04-30T10:01:09;6.00;;;2.90;;
52838;SDS011;39219;53.678;9.856;2023-04-30T10:03:36;6.97;;;3.10;;
52838;SDS011;39219;53.678;9.856;2023-04-30T10:06:05;7.93;;;3.30;;
52838;SDS011;39219;53.678;9.856;2023-04-30T10:08:35;8.68;;;3.10;;
52838;SDS011;39219;53.678;9.856;2023-04-30T10:11:06;15.15;;;3.20;;
52838;SDS011;39219;53.678;9.856;2023-04-30T10:13:34;7.35;;;2.80;;
52838;SDS011;39219;53.678;9.856;2023-04-30T10:16:10;7.72;;;3.30;;
52838;SDS011;39219;53.678;9.856;2023-04-30T10:18:42;10.82;;;3.22;;
52838;SDS011;39219;53.678;9.856;2023-04-30T10:21:12;10.38;;;3.30;;
52838;SDS011;39219;53.678;9.856;2023-04-30T10:23:42;6.30;;;2.90;;
52838;SDS011;39219;53.678;9.856;2023-04-30T10:26:09;7.45;;;3.08;;
52838;SDS011;39219;53.678;9.856;2023-04-30T10:28:40;12.27;;;3.42;;
52838;SDS011;39219;53.678;9.856;2023-04-30T10:31:07;7.82;;;2.80;;
52838;SDS011;39219;53.678;9.856;2023-04-30T10:33:36;6.30;;;3.20;;
52838;SDS011;39219;53.678;9.856;2023-04-30T10:36:13;7.75;;;3.20;;
52838;SDS011;39219;53.678;9.856;2023-04-30T10:38:49;16.52;;;3.78;;
52838;SDS011;39219;53.678;9.856;2023-04-30T10:41:18;9.88;;;3.05;;
52838;SDS011;39219;53.678;9.856;2023-04-30T10:43:47;8.02;;;2.88;;
52838;SDS011;39219;53.678;9.856;2023-04-30T10:46:20;7.93;;;3.40;;
52838;SDS011;39219;53.678;9.856;2023-04-30T10:48:47;7.45;;;3.33;;
52838;SDS011;39219;53.678;9.856;2023-04-30T10:51:14;7.68;;;3.53;;
52838;SDS011;39219;53.678;9.856;2023-04-30T10:53:41;8.52;;;3.63;;
52838;SDS011;39219;53.678;9.856;2023-04-30T10:56:09;9.25;;;3.40;;
52838;SDS011;39219;53.678;9.856;2023-04-30T10:58:37;6.75;;;3.15;;
52838;SDS011;39219;53.678;9.856;2023-04-30T11:01:06;6.40;;;3.55;;
52838;SDS011;39219;53.678;9.856;2023-04-30T11:03:35;8.35;;;3.60;;
52838;SDS011;39219;53.678;9.856;2023-04-30T11:06:10;6.22;;;3.15;;
52838;SDS011;39219;53.678;9.856;2023-04-30T11:08:38;8.63;;;3.20;;
52838;SDS011;39219;53.678;9.856;2023-04-30T11:11:09;7.50;;;3.50;;
52838;SDS011;39219;53.678;9.856;2023-04-30T11:13:39;9.20;;;3.30;;
52838;SDS011;39219;53.678;9.856;2023-04-30T11:16:08;7.05;;;3.40;;
52838;SDS011;39219;53.678;9.856;2023-04-30T11:18:40;8.25;;;3.22;;
52838;SDS011;39219;53.678;9.856;2023-04-30T11:21:07;4.43;;;2.85;;
52838;SDS011;39219;53.678;9.856;2023-04-30T11:23:35;7.20;;;2.90;;
52838;SDS011;39219;53.678;9.856;2023-04-30T11:26:02;5.93;;;2.92;;
52838;SDS011;39219;53.678;9.856;2023-04-30T11:28:31;6.03;;;3.10;;
52838;SDS011;39219;53.678;9.856;2023-04-30T11:30:58;5.00;;;2.90;;
52838;SDS011;39219;53.678;9.856;2023-04-30T11:33:27;7.65;;;3.33;;
52838;SDS011;39219;53.678;9.856;2023-04-30T11:35:55;9.73;;;3.53;;
52838;SDS011;39219;53.678;9.856;2023-04-30T11:38:25;8.45;;;3.20;;
52838;SDS011;39219;53.678;9.856;2023-04-30T11:40:52;6.15;;;3.17;;
52838;SDS011;39219;53.678;9.856;2023-04-30T11:43:22;6.63;;;3.28;;
52838;SDS011;39219;53.678;9.856;2023-04-30T11:45:59;10.27;;;3.40;;
52838;SDS011;39219;53.678;9.856;2023-04-30T11:48:31;10.88;;;3.80;;
52838;SDS011;39219;53.678;9.856;2023-04-30T11:50:59;6.80;;;3.35;;
52838;SDS011;39219;53.678;9.856;2023-04-30T11:53:28;8.38;;;3.40;;
52838;SDS011;39219;53.678;9.856;2023-04-30T11:55:55;7.55;;;3.38;;
52838;SDS011;39219;53.678;9.856;2023-04-30T11:58:21;8.13;;;3.33;;
52838;SDS011;39219;53.678;9.856;2023-04-30T12:00:48;9.82;;;3.63;;
52838;SDS011;39219;53.678;9.856;2023-04-30T12:03:17;10.13;;;4.22;;
52838;SDS011;39219;53.678;9.856;2023-04-30T12:05:45;7.97;;;3.25;;
52838;SDS011;39219;53.678;9.856;2023-04-30T12:08:12;8.00;;;3.35;;
52838;SDS011;39219;53.678;9.856;2023-04-30T12:10:38;6.30;;;3.20;;
52838;SDS011;39219;53.678;9.856;2023-04-30T12:13:05;7.05;;;3.35;;
52838;SDS011;39219;53.678;9.856;2023-04-30T12:15:31;7.55;;;3.65;;
52838;SDS011;39219;53.678;9.856;2023-04-30T12:17:58;6.82;;;3.35;;
52838;SDS011;39219;53.678;9.856;2023-04-30T12:20:26;8.93;;;3.50;;
52838;SDS011;39219;53.678;9.856;2023-04-30T12:22:55;7.20;;;3.70;;
52838;SDS011;39219;53.678;9.856;2023-04-30T12:25:23;8.38;;;3.60;;
52838;SDS011;39219;53.678;9.856;2023-04-30T12:27:50;9.25;;;3.53;;
52838;SDS011;39219;53.678;9.856;2023-04-30T12:30:18;8.75;;;3.38;;
52838;SDS011;39219;53.678;9.856;2023-04-30T12:32:48;6.80;;;3.50;;
52838;SDS011;39219;53.678;9.856;2023-04-30T12:35:16;10.13;;;3.83;;
52838;SDS011;39219;53.678;9.856;2023-04-30T12:37:45;6.43;;;3.13;;
52838;SDS011;39219;53.678;9.856;2023-04-30T12:40:16;10.20;;;3.78;;
52838;SDS011;39219;53.678;9.856;2023-04-30T12:42:43;8.50;;;3.30;;
52838;SDS011;39219;53.678;9.856;2023-04-30T12:45:11;10.00;;;3.45;;
52838;SDS011;39219;53.678;9.856;2023-04-30T12:47:38;7.15;;;3.45;;
52838;SDS011;39219;53.678;9.856;2023-04-30T12:50:08;8.07;;;3.58;;
52838;SDS011;39219;53.678;9.856;2023-04-30T12:52:37;6.95;;;3.40;;
52838;SDS011;39219;53.678;9.856;2023-04-30T12:55:15;8.27;;;3.47;;
52838;SDS011;39219;53.678;9.856;2023-04-30T12:58:02;8.02;;;3.75;;
52838;SDS011;39219;53.678;9.856;2023-04-30T13:00:47;7.07;;;3.70;;
52838;SDS011;39219;53.678;9.856;2023-04-30T13:03:14;6.30;;;3.28;;
52838;SDS011;39219;53.678;9.856;2023-04-30T13:05:45;7.78;;;3.67;;
52838;SDS011;39219;53.678;9.856;2023-04-30T13:08:13;7.95;;;3.70;;
52838;SDS011;39219;53.678;9.856;2023-04-30T13:10:41;8.93;;;3.70;;
52838;SDS011;39219;53.678;9.856;2023-04-30T13:13:08;9.07;;;3.50;;
52838;SDS011;39219;53.678;9.856;2023-04-30T13:15:35;5.90;;;3.20;;
52838;SDS011;39219;53.678;9.856;2023-04-30T13:18:01;8.85;;;3.85;;
52838;SDS011;39219;53.678;9.856;2023-04-30T13:20:28;10.88;;;3.90;;
52838;SDS011;39219;53.678;9.856;2023-04-30T13:22:55;5.82;;;3.28;;
52838;SDS011;39219;53.678;9.856;2023-04-30T13:25:21;8.63;;;3.70;;
52838;SDS011;39219;53.678;9.856;2023-04-30T13:27:49;8.50;;;3.55;;
52838;SDS011;39219;53.678;9.856;2023-04-30T13:30:15;8.25;;;3.83;;
52838;SDS011;39219;53.678;9.856;2023-04-30T13:32:42;6.47;;;3.28;;
52838;SDS011;39219;53.678;9.856;2023-04-30T13:35:10;6.53;;;3.40;;
52838;SDS011;39219;53.678;9.856;2023-04-30T13:37:36;9.25;;;3.90;;
52838;SDS011;39219;53.678;9.856;2023-04-30T13:40:03;9.50;;;3.70;;
52838;SDS011;39219;53.678;9.856;2023-04-30T13:42:31;9.85;;;3.80;;
52838;SDS011;39219;53.678;9.856;2023-04-30T13:44:59;10.30;;;4.20;;
52838;SDS011;39219;53.678;9.856;2023-04-30T13:47:26;9.05;;;3.90;;
52838;SDS011;39219;53.678;9.856;2023-04-30T13:49:52;9.40;;;3.70;;
52838;SDS011;39219;53.678;9.856;2023-04-30T13:52:19;9.73;;;3.63;;
52838;SDS011;39219;53.678;9.856;2023-04-30T13:54:45;11.77;;;3.90;;
52838;SDS011;39219;53.678;9.856;2023-04-30T13:57:11;6.28;;;3.65;;
52838;SDS011;39219;53.678;9.856;2023-04-30T13:59:38;9.30;;;3.67;;
52838;SDS011;39219;53.678;9.856;2023-04-30T14:02:06;7.45;;;3.50;;
52838;SDS011;39219;53.678;9.856;2023-04-30T14:04:33;7.93;;;3.83;;
52838;SDS011;39219;53.678;9.856;2023-04-30T14:07:02;8.70;;;3.65;;
52838;SDS011;39219;53.678;9.856;2023-04-30T14:09:29;8.32;;;3.83;;
52838;SDS011;39219;53.678;9.856;2023-04-30T14:11:56;6.78;;;3.70;;
52838;SDS011;39219;53.678;9.856;2023-04-30T14:14:23;8.35;;;3.80;;
52838;SDS011;39219;53.678;9.856;2023-04-30T14:16:50;6.78;;;3.38;;
52838;SDS011;39219;53.678;9.856;2023-04-30T14:19:18;9.27;;;3.70;;
52838;SDS011;39219;53.678;9.856;2023-04-30T14:21:44;11.25;;;4.38;;
52838;SDS011;39219;53.678;9.856;2023-04-30T14:24:11;11.35;;;4.35;;
52838;SDS011;39219;53.678;9.856;2023-04-30T14:26:39;10.52;;;4.25;;
52838;SDS011;39219;53.678;9.856;2023-04-30T14:29:06;10.73;;;4.30;;
52838;SDS011;39219;53.678;9.856;2023-04-30T14:31:33;7.85;;;4.60;;
52838;SDS011;39219;53.678;9.856;2023-04-30T14:34:00;9.45;;;4.10;;
52838;SDS011;39219;53.678;9.856;2023-04-30T14:36:28;10.85;;;3.90;;
52838;SDS011;39219;53.678;9.856;2023-04-30T14:38:54;9.15;;;4.30;;
52838;SDS011;39219;53.678;9.856;2023-04-30T14:41:21;10.05;;;4.10;;
52838;SDS011;39219;53.678;9.856;2023-04-30T14:43:47;6.25;;;3.95;;
52838;SDS011;39219;53.678;9.856;2023-04-30T14:46:14;7.53;;;3.92;;